sensor_id;sensor_type;location;lat;lon;timestamp;pressure;altitude;pressure_sealevel;temperature;humidity
75551;BME280;65071;53.082;18.218;2024-01-15T00:00:50;98853.81;;;1.83;91.98
75551;BME280;65071;53.082;18.218;2024-01-15T00:03:37;98848.08;;;1.82;92.17
75551;BME280;65071;53.082;18.218;2024-01-15T00:06:03;98845.11;;;1.82;91.97
75551;BME280;65071;53.082;18.218;2024-01-15T00:08:30;98836.41;;;1.80;91.99
75551;BME280;65071;53.082;18.218;2024-01-15T00:10:56;98834.38;;;1.76;91.88
75551;BME280;65071;53.082;18.218;2024-01-15T00:13:22;98830.17;;;1.71;92.31
75551;BME280;65071;53.082;18.218;2024-01-15T00:15:48;98819.22;;;1.69;92.24
75551;BME280;65071;53.082;18.218;2024-01-15T00:18:15;98815.30;;;1.68;92.57
75551;BME280;65071;53.082;18.218;2024-01-15T00:20:41;98816.40;;;1.67;92.79
75551;BME280;65071;53.082;18.218;2024-01-15T00:23:08;98809.95;;;1.68;92.42
75551;BME280;65071;53.082;18.218;2024-01-15T00:25:34;98811.09;;;1.67;92.64
75551;BME280;65071;53.082;18.218;2024-01-15T00:28:01;98806.02;;;1.66;93.07
75551;BME280;65071;53.082;18.218;2024-01-15T00:30:27;98806.52;;;1.67;92.92
75551;BME280;65071;53.082;18.218;2024-01-15T00:32:53;98801.23;;;1.66;93.02
75551;BME280;65071;53.082;18.218;2024-01-15T00:35:20;98792.64;;;1.67;92.93
75551;BME280;65071;53.082;18.218;2024-01-15T00:37:46;98782.18;;;1.67;93.01
75551;BME280;65071;53.082;18.218;2024-01-15T00:40:13;98779.37;;;1.67;93.09
75551;BME280;65071;53.082;18.218;2024-01-15T00:42:40;98775.80;;;1.67;93.12
75551;BME280;65071;53.082;18.218;2024-01-15T00:45:06;98770.23;;;1.68;92.75
75551;BME280;65071;53.082;18.218;2024-01-15T00:47:34;98776.85;;;1.69;93.02
75551;BME280;65071;53.082;18.218;2024-01-15T00:50:01;98764.86;;;1.71;92.51
75551;BME280;65071;53.082;18.218;2024-01-15T00:52:27;98763.42;;;1.71;92.72
75551;BME280;65071;53.082;18.218;2024-01-15T00:54:54;98759.05;;;1.72;92.94
75551;BME280;65071;53.082;18.218;2024-01-15T00:57:20;98755.21;;;1.73;92.67
75551;BME280;65071;53.082;18.218;2024-01-15T00:59:47;98748.08;;;1.74;92.65
75551;BME280;65071;53.082;18.218;2024-01-15T01:02:13;98744.41;;;1.75;92.72
75551;BME280;65071;53.082;18.218;2024-01-15T01:04:40;98738.35;;;1.75;92.74
75551;BME280;65071;53.082;18.218;2024-01-15T01:07:06;98738.13;;;1.76;92.86
75551;BME280;65071;53.082;18.218;2024-01-15T01:09:32;98731.77;;;1.74;92.31
75551;BME280;65071;53.082;18.218;2024-01-15T01:11:59;98728.98;;;1.75;92.42
75551;BME280;65071;53.082;18.218;2024-01-15T01:14:25;98722.05;;;1.75;92.43
75551;BME280;65071;53.082;18.218;2024-01-15T01:16:51;98716.77;;;1.77;92.48
75551;BME280;65071;53.082;18.218;2024-01-15T01:19:18;98705.96;;;1.77;92.38
75551;BME280;65071;53.082;18.218;2024-01-15T01:21:44;98703.95;;;1.77;92.37
75551;BME280;65071;53.082;18.218;2024-01-15T01:24:11;98703.41;;;1.77;91.99
75551;BME280;65071;53.082;18.218;2024-01-15T01:26:37;98701.98;;;1.78;92.16
75551;BME280;65071;53.082;18.218;2024-01-15T01:29:03;98695.51;;;1.78;92.17
75551;BME280;65071;53.082;18.218;2024-01-15T01:31:30;98689.12;;;1.78;92.27
75551;BME280;65071;53.082;18.218;2024-01-15T01:33:56;98687.09;;;1.78;92.28
75551;BME280;65071;53.082;18.218;2024-01-15T01:36:22;98683.32;;;1.78;92.42
75551;BME280;65071;53.082;18.218;2024-01-15T01:38:49;98684.52;;;1.79;92.16
75551;BME280;65071;53.082;18.218;2024-01-15T01:41:15;98680.23;;;1.79;91.84
75551;BME280;65071;53.082;18.218;2024-01-15T01:43:43;98673.79;;;1.80;92.23
75551;BME280;65071;53.082;18.218;2024-01-15T01:46:10;98676.65;;;1.81;91.57
75551;BME280;65071;53.082;18.218;2024-01-15T01:48:37;98670.63;;;1.81;91.43
75551;BME280;65071;53.082;18.218;2024-01-15T01:51:04;98671.88;;;1.83;91.62
75551;BME280;65071;53.082;18.218;2024-01-15T01:53:32;98662.28;;;1.85;91.34
75551;BME280;65071;53.082;18.218;2024-01-15T01:55:59;98659.52;;;1.86;91.16
75551;BME280;65071;53.082;18.218;2024-01-15T01:58:27;98653.02;;;1.87;90.79
75551;BME280;65071;53.082;18.218;2024-01-15T02:00:54;98650.46;;;1.88;90.60
75551;BME280;65071;53.082;18.218;2024-01-15T02:03:21;98643.02;;;1.88;90.91
75551;BME280;65071;53.082;18.218;2024-01-15T02:05:49;98634.51;;;1.88;90.99
75551;BME280;65071;53.082;18.218;2024-01-15T02:08:16;98630.87;;;1.85;90.95
75551;BME280;65071;53.082;18.218;2024-01-15T02:10:42;98624.00;;;1.87;91.01
75551;BME280;65071;53.082;18.218;2024-01-15T02:13:09;98618.35;;;1.84;90.90
75551;BME280;65071;53.082;18.218;2024-01-15T02:15:35;98621.58;;;1.84;90.99
75551;BME280;65071;53.082;18.218;2024-01-15T02:18:04;98618.42;;;1.84;90.98
75551;BME280;65071;53.082;18.218;2024-01-15T02:20:31;98612.32;;;1.83;90.75
75551;BME280;65071;53.082;18.218;2024-01-15T02:23:12;98613.83;;;1.84;90.76
75551;BME280;65071;53.082;18.218;2024-01-15T02:25:40;98612.96;;;1.83;90.64
75551;BME280;65071;53.082;18.218;2024-01-15T02:28:19;98598.69;;;1.81;90.52
75551;BME280;65071;53.082;18.218;2024-01-15T02:30:46;98591.89;;;1.80;90.41
75551;BME280;65071;53.082;18.218;2024-01-15T02:33:12;98590.66;;;1.80;90.19
75551;BME280;65071;53.082;18.218;2024-01-15T02:35:39;98587.45;;;1.80;90.15
75551;BME280;65071;53.082;18.218;2024-01-15T02:38:06;98589.30;;;1.79;90.34
75551;BME280;65071;53.082;18.218;2024-01-15T02:40:33;98585.73;;;1.79;90.03
75551;BME280;65071;53.082;18.218;2024-01-15T02:43:00;98586.36;;;1.80;90.13
75551;BME280;65071;53.082;18.218;2024-01-15T02:45:27;98586.71;;;1.80;90.12
75551;BME280;65071;53.082;18.218;2024-01-15T02:47:54;98583.39;;;1.80;90.42
75551;BME280;65071;53.082;18.218;2024-01-15T02:50:20;98579.09;;;1.79;89.83
75551;BME280;65071;53.082;18.218;2024-01-15T02:52:47;98574.48;;;1.78;89.65
75551;BME280;65071;53.082;18.218;2024-01-15T02:55:13;98573.20;;;1.79;90.06
75551;BME280;65071;53.082;18.218;2024-01-15T02:57:40;98565.64;;;1.78;89.38
75551;BME280;65071;53.082;18.218;2024-01-15T03:00:06;98564.23;;;1.78;89.89
75551;BME280;65071;53.082;18.218;2024-01-15T03:02:38;98559.23;;;1.77;89.64
75551;BME280;65071;53.082;18.218;2024-01-15T03:05:11;98560.58;;;1.76;90.18
75551;BME280;65071;53.082;18.218;2024-01-15T03:07:37;98562.41;;;1.75;90.51
75551;BME280;65071;53.082;18.218;2024-01-15T03:10:05;98558.20;;;1.75;90.60
75551;BME280;65071;53.082;18.218;2024-01-15T03:12:32;98551.14;;;1.73;90.86
75551;BME280;65071;53.082;18.218;2024-01-15T03:14:59;98548.02;;;1.72;91.34
75551;BME280;65071;53.082;18.218;2024-01-15T03:17:25;98536.44;;;1.71;90.92
75551;BME280;65071;53.082;18.218;2024-01-15T03:19:52;98535.46;;;1.70;90.70
75551;BME280;65071;53.082;18.218;2024-01-15T03:27:11;98526.27;;;1.70;90.69
75551;BME280;65071;53.082;18.218;2024-01-15T03:29:37;98518.36;;;1.69;90.71
75551;BME280;65071;53.082;18.218;2024-01-15T03:32:05;98519.16;;;1.68;90.65
75551;BME280;65071;53.082;18.218;2024-01-15T03:34:32;98516.61;;;1.67;90.93
75551;BME280;65071;53.082;18.218;2024-01-15T03:36:58;98511.30;;;1.65;91.00
75551;BME280;65071;53.082;18.218;2024-01-15T03:39:25;98513.92;;;1.64;91.21
75551;BME280;65071;53.082;18.218;2024-01-15T03:41:51;98510.44;;;1.62;91.42
75551;BME280;65071;53.082;18.218;2024-01-15T03:44:18;98508.86;;;1.60;91.51
75551;BME280;65071;53.082;18.218;2024-01-15T03:46:44;98503.83;;;1.59;91.90
75551;BME280;65071;53.082;18.218;2024-01-15T03:49:10;98498.18;;;1.57;92.05
75551;BME280;65071;53.082;18.218;2024-01-15T03:51:36;98493.80;;;1.55;92.13
75551;BME280;65071;53.082;18.218;2024-01-15T03:54:03;98494.71;;;1.53;92.34
75551;BME280;65071;53.082;18.218;2024-01-15T03:56:29;98485.17;;;1.51;92.47
75551;BME280;65071;53.082;18.218;2024-01-15T03:58:55;98484.95;;;1.49;92.34
75551;BME280;65071;53.082;18.218;2024-01-15T04:01:22;98481.70;;;1.46;92.92
75551;BME280;65071;53.082;18.218;2024-01-15T04:03:48;98476.20;;;1.42;93.20
75551;BME280;65071;53.082;18.218;2024-01-15T04:06:15;98469.36;;;1.42;93.07
75551;BME280;65071;53.082;18.218;2024-01-15T04:08:41;98467.24;;;1.41;92.89
75551;BME280;65071;53.082;18.218;2024-01-15T04:11:07;98466.16;;;1.38;93.13
75551;BME280;65071;53.082;18.218;2024-01-15T04:13:33;98462.73;;;1.35;93.49
75551;BME280;65071;53.082;18.218;2024-01-15T04:16:00;98458.97;;;1.34;93.90
75551;BME280;65071;53.082;18.218;2024-01-15T04:18:27;98454.54;;;1.32;93.62
75551;BME280;65071;53.082;18.218;2024-01-15T04:20:53;98448.55;;;1.30;94.11
75551;BME280;65071;53.082;18.218;2024-01-15T04:23:20;98452.33;;;1.28;94.06
75551;BME280;65071;53.082;18.218;2024-01-15T04:25:46;98452.20;;;1.26;94.02
75551;BME280;65071;53.082;18.218;2024-01-15T04:28:13;98445.25;;;1.23;94.65
75551;BME280;65071;53.082;18.218;2024-01-15T04:30:39;98456.02;;;1.21;94.47
75551;BME280;65071;53.082;18.218;2024-01-15T04:33:05;98459.92;;;1.19;94.48
75551;BME280;65071;53.082;18.218;2024-01-15T04:35:33;98459.83;;;1.18;94.83
75551;BME280;65071;53.082;18.218;2024-01-15T04:38:00;98462.19;;;1.18;95.21
75551;BME280;65071;53.082;18.218;2024-01-15T04:40:27;98458.63;;;1.16;95.14
75551;BME280;65071;53.082;18.218;2024-01-15T04:42:54;98451.70;;;1.15;95.03
75551;BME280;65071;53.082;18.218;2024-01-15T04:45:21;98444.52;;;1.14;94.89
75551;BME280;65071;53.082;18.218;2024-01-15T04:47:49;98434.09;;;1.12;94.63
75551;BME280;65071;53.082;18.218;2024-01-15T04:50:15;98430.98;;;1.10;94.93
75551;BME280;65071;53.082;18.218;2024-01-15T04:52:42;98431.38;;;1.07;95.62
75551;BME280;65071;53.082;18.218;2024-01-15T04:55:08;98425.50;;;1.06;95.52
75551;BME280;65071;53.082;18.218;2024-01-15T04:57:35;98432.42;;;1.04;95.95
75551;BME280;65071;53.082;18.218;2024-01-15T05:00:01;98428.09;;;1.03;95.88
75551;BME280;65071;53.082;18.218;2024-01-15T05:02:28;98425.59;;;1.02;96.02
75551;BME280;65071;53.082;18.218;2024-01-15T05:04:54;98417.36;;;1.01;95.88
75551;BME280;65071;53.082;18.218;2024-01-15T05:07:21;98414.67;;;0.99;95.52
75551;BME280;65071;53.082;18.218;2024-01-15T05:09:47;98421.15;;;1.00;95.30
75551;BME280;65071;53.082;18.218;2024-01-15T05:12:13;98416.40;;;1.00;94.62
75551;BME280;65071;53.082;18.218;2024-01-15T05:14:39;98416.60;;;0.99;94.61
75551;BME280;65071;53.082;18.218;2024-01-15T05:17:06;98420.58;;;0.99;94.80
75551;BME280;65071;53.082;18.218;2024-01-15T05:19:32;98422.36;;;0.98;94.32
75551;BME280;65071;53.082;18.218;2024-01-15T05:21:59;98419.77;;;0.98;94.52
75551;BME280;65071;53.082;18.218;2024-01-15T05:24:25;98419.24;;;0.96;93.87
75551;BME280;65071;53.082;18.218;2024-01-15T05:26:52;98423.13;;;0.96;93.66
75551;BME280;65071;53.082;18.218;2024-01-15T05:29:19;98421.70;;;0.94;93.58
75551;BME280;65071;53.082;18.218;2024-01-15T05:31:45;98418.39;;;0.90;93.29
75551;BME280;65071;53.082;18.218;2024-01-15T05:34:11;98414.75;;;0.88;93.07
75551;BME280;65071;53.082;18.218;2024-01-15T05:36:37;98416.76;;;0.84;93.05
75551;BME280;65071;53.082;18.218;2024-01-15T05:39:04;98419.70;;;0.81;92.83
75551;BME280;65071;53.082;18.218;2024-01-15T05:41:30;98424.27;;;0.77;92.71
75551;BME280;65071;53.082;18.218;2024-01-15T05:43:57;98423.58;;;0.76;92.92
75551;BME280;65071;53.082;18.218;2024-01-15T05:46:23;98423.85;;;0.76;92.77
75551;BME280;65071;53.082;18.218;2024-01-15T05:48:49;98422.90;;;0.79;92.95
75551;BME280;65071;53.082;18.218;2024-01-15T05:51:16;98418.90;;;0.80;93.26
75551;BME280;65071;53.082;18.218;2024-01-15T05:53:42;98415.83;;;0.83;93.04
75551;BME280;65071;53.082;18.218;2024-01-15T05:56:10;98411.27;;;0.84;92.86
75551;BME280;65071;53.082;18.218;2024-01-15T05:58:37;98409.55;;;0.85;92.43
75551;BME280;65071;53.082;18.218;2024-01-15T06:01:03;98412.10;;;0.86;92.38
75551;BME280;65071;53.082;18.218;2024-01-15T06:03:30;98414.95;;;0.88;92.33
75551;BME280;65071;53.082;18.218;2024-01-15T06:05:56;98413.74;;;0.87;92.49
75551;BME280;65071;53.082;18.218;2024-01-15T06:08:23;98414.65;;;0.85;91.85
75551;BME280;65071;53.082;18.218;2024-01-15T06:10:49;98412.31;;;0.84;92.38
75551;BME280;65071;53.082;18.218;2024-01-15T06:13:16;98413.31;;;0.84;92.13
75551;BME280;65071;53.082;18.218;2024-01-15T06:15:42;98409.81;;;0.86;92.29
75551;BME280;65071;53.082;18.218;2024-01-15T06:18:09;98411.70;;;0.86;92.61
75551;BME280;65071;53.082;18.218;2024-01-15T06:20:36;98413.95;;;0.87;92.55
75551;BME280;65071;53.082;18.218;2024-01-15T06:23:02;98413.32;;;0.88;92.55
75551;BME280;65071;53.082;18.218;2024-01-15T06:25:28;98415.74;;;0.88;92.49
75551;BME280;65071;53.082;18.218;2024-01-15T06:27:54;98411.11;;;0.89;92.17
75551;BME280;65071;53.082;18.218;2024-01-15T06:30:21;98408.83;;;0.90;92.02
75551;BME280;65071;53.082;18.218;2024-01-15T06:32:47;98404.39;;;0.88;91.80
75551;BME280;65071;53.082;18.218;2024-01-15T06:35:13;98402.70;;;0.90;92.03
75551;BME280;65071;53.082;18.218;2024-01-15T06:37:40;98407.94;;;0.90;91.63
75551;BME280;65071;53.082;18.218;2024-01-15T06:40:07;98404.90;;;0.91;91.48
75551;BME280;65071;53.082;18.218;2024-01-15T06:42:34;98402.27;;;0.92;91.53
75551;BME280;65071;53.082;18.218;2024-01-15T06:45:00;98401.31;;;0.95;91.18
75551;BME280;65071;53.082;18.218;2024-01-15T06:47:27;98398.64;;;0.95;90.94
75551;BME280;65071;53.082;18.218;2024-01-15T06:49:53;98398.13;;;0.98;91.15
75551;BME280;65071;53.082;18.218;2024-01-15T06:52:19;98395.50;;;1.00;90.83
75551;BME280;65071;53.082;18.218;2024-01-15T06:54:45;98393.76;;;1.01;90.52
75551;BME280;65071;53.082;18.218;2024-01-15T06:57:11;98395.70;;;1.03;90.70
75551;BME280;65071;53.082;18.218;2024-01-15T06:59:38;98387.45;;;1.04;90.50
75551;BME280;65071;53.082;18.218;2024-01-15T07:02:05;98385.55;;;1.06;90.32
75551;BME280;65071;53.082;18.218;2024-01-15T07:04:31;98387.34;;;1.05;90.18
75551;BME280;65071;53.082;18.218;2024-01-15T07:06:57;98385.71;;;1.07;90.02
75551;BME280;65071;53.082;18.218;2024-01-15T07:09:24;98386.05;;;1.07;89.70
75551;BME280;65071;53.082;18.218;2024-01-15T07:11:51;98382.38;;;1.07;89.65
75551;BME280;65071;53.082;18.218;2024-01-15T07:14:17;98385.36;;;1.09;89.49
75551;BME280;65071;53.082;18.218;2024-01-15T07:16:46;98390.60;;;1.10;89.23
75551;BME280;65071;53.082;18.218;2024-01-15T07:19:13;98393.29;;;1.11;89.23
75551;BME280;65071;53.082;18.218;2024-01-15T07:21:39;98394.97;;;1.12;89.54
75551;BME280;65071;53.082;18.218;2024-01-15T07:24:06;98389.78;;;1.15;89.65
75551;BME280;65071;53.082;18.218;2024-01-15T07:26:32;98390.15;;;1.17;89.51
75551;BME280;65071;53.082;18.218;2024-01-15T07:28:58;98393.77;;;1.19;89.91
75551;BME280;65071;53.082;18.218;2024-01-15T07:31:25;98396.79;;;1.19;89.63
75551;BME280;65071;53.082;18.218;2024-01-15T07:33:51;98397.80;;;1.19;89.97
75551;BME280;65071;53.082;18.218;2024-01-15T07:36:18;98407.52;;;1.19;90.15
75551;BME280;65071;53.082;18.218;2024-01-15T07:41:10;98405.80;;;1.19;91.05
75551;BME280;65071;53.082;18.218;2024-01-15T07:43:37;98399.17;;;1.20;90.98
75551;BME280;65071;53.082;18.218;2024-01-15T07:46:03;98403.55;;;1.22;91.31
75551;BME280;65071;53.082;18.218;2024-01-15T07:48:30;98392.10;;;1.23;90.48
75551;BME280;65071;53.082;18.218;2024-01-15T07:50:57;98393.42;;;1.26;90.39
75551;BME280;65071;53.082;18.218;2024-01-15T07:53:23;98393.03;;;1.26;90.05
75551;BME280;65071;53.082;18.218;2024-01-15T07:55:50;98386.70;;;1.27;89.92
75551;BME280;65071;53.082;18.218;2024-01-15T07:58:17;98384.34;;;1.31;89.77
75551;BME280;65071;53.082;18.218;2024-01-15T08:00:43;98386.56;;;1.34;89.32
75551;BME280;65071;53.082;18.218;2024-01-15T08:03:10;98390.92;;;1.35;89.18
75551;BME280;65071;53.082;18.218;2024-01-15T08:05:37;98392.28;;;1.39;88.99
75551;BME280;65071;53.082;18.218;2024-01-15T08:08:03;98385.13;;;1.41;88.67
75551;BME280;65071;53.082;18.218;2024-01-15T08:10:30;98383.11;;;1.45;88.24
75551;BME280;65071;53.082;18.218;2024-01-15T08:12:57;98388.67;;;1.50;87.89
75551;BME280;65071;53.082;18.218;2024-01-15T08:15:23;98378.27;;;1.51;87.82
75551;BME280;65071;53.082;18.218;2024-01-15T08:17:50;98379.05;;;1.63;87.39
75551;BME280;65071;53.082;18.218;2024-01-15T08:20:16;98387.87;;;1.73;87.91
75551;BME280;65071;53.082;18.218;2024-01-15T08:22:43;98389.90;;;1.78;87.30
75551;BME280;65071;53.082;18.218;2024-01-15T08:25:09;98381.55;;;1.78;86.87
75551;BME280;65071;53.082;18.218;2024-01-15T08:27:35;98380.00;;;1.78;87.20
75551;BME280;65071;53.082;18.218;2024-01-15T08:30:02;98379.47;;;1.74;86.96
75551;BME280;65071;53.082;18.218;2024-01-15T08:32:30;98372.18;;;1.68;86.95
75551;BME280;65071;53.082;18.218;2024-01-15T08:34:57;98373.31;;;1.64;87.01
75551;BME280;65071;53.082;18.218;2024-01-15T08:37:23;98375.02;;;1.66;87.16
75551;BME280;65071;53.082;18.218;2024-01-15T08:39:51;98369.38;;;1.67;86.62
75551;BME280;65071;53.082;18.218;2024-01-15T08:42:17;98370.06;;;1.69;86.54
75551;BME280;65071;53.082;18.218;2024-01-15T08:44:44;98368.10;;;1.78;86.42
75551;BME280;65071;53.082;18.218;2024-01-15T08:47:10;98369.39;;;1.93;85.38
75551;BME280;65071;53.082;18.218;2024-01-15T08:49:37;98373.75;;;2.05;84.60
75551;BME280;65071;53.082;18.218;2024-01-15T08:52:03;98374.11;;;2.12;84.01
75551;BME280;65071;53.082;18.218;2024-01-15T08:54:30;98377.11;;;2.17;83.88
75551;BME280;65071;53.082;18.218;2024-01-15T08:56:56;98374.89;;;2.20;83.79
75551;BME280;65071;53.082;18.218;2024-01-15T08:59:22;98379.63;;;2.25;83.66
75551;BME280;65071;53.082;18.218;2024-01-15T09:01:54;98371.21;;;2.30;82.84
75551;BME280;65071;53.082;18.218;2024-01-15T09:04:23;98372.51;;;2.36;82.28
75551;BME280;65071;53.082;18.218;2024-01-15T09:06:49;98373.32;;;2.33;83.17
75551;BME280;65071;53.082;18.218;2024-01-15T09:09:16;98373.75;;;2.29;83.27
75551;BME280;65071;53.082;18.218;2024-01-15T09:11:43;98372.15;;;2.26;84.03
75551;BME280;65071;53.082;18.218;2024-01-15T09:14:09;98374.65;;;2.24;84.13
75551;BME280;65071;53.082;18.218;2024-01-15T09:16:35;98373.21;;;2.22;84.22
75551;BME280;65071;53.082;18.218;2024-01-15T09:19:02;98363.76;;;2.28;83.84
75551;BME280;65071;53.082;18.218;2024-01-15T09:21:29;98360.30;;;2.37;83.71
75551;BME280;65071;53.082;18.218;2024-01-15T09:23:55;98358.10;;;2.43;83.25
75551;BME280;65071;53.082;18.218;2024-01-15T09:26:22;98355.33;;;2.47;82.84
75551;BME280;65071;53.082;18.218;2024-01-15T09:28:48;98351.63;;;2.47;82.86
75551;BME280;65071;53.082;18.218;2024-01-15T09:31:15;98351.85;;;2.45;83.20
75551;BME280;65071;53.082;18.218;2024-01-15T09:33:43;98347.40;;;2.45;83.24
75551;BME280;65071;53.082;18.218;2024-01-15T09:36:10;98342.15;;;2.46;82.80
75551;BME280;65071;53.082;18.218;2024-01-15T09:38:36;98340.09;;;2.45;82.34
75551;BME280;65071;53.082;18.218;2024-01-15T09:41:03;98331.70;;;2.44;82.18
75551;BME280;65071;53.082;18.218;2024-01-15T09:43:30;98338.33;;;2.45;82.74
75551;BME280;65071;53.082;18.218;2024-01-15T09:45:57;98330.85;;;2.42;82.05
75551;BME280;65071;53.082;18.218;2024-01-15T09:48:23;98330.33;;;2.47;82.14
75551;BME280;65071;53.082;18.218;2024-01-15T09:50:50;98327.61;;;2.46;82.17
75551;BME280;65071;53.082;18.218;2024-01-15T09:53:16;98331.08;;;2.47;82.32
75551;BME280;65071;53.082;18.218;2024-01-15T09:55:43;98335.59;;;2.44;82.63
75551;BME280;65071;53.082;18.218;2024-01-15T09:58:10;98334.11;;;2.42;82.01
75551;BME280;65071;53.082;18.218;2024-01-15T10:00:38;98335.06;;;2.36;83.18
75551;BME280;65071;53.082;18.218;2024-01-15T10:03:08;98326.46;;;2.32;83.60
75551;BME280;65071;53.082;18.218;2024-01-15T10:05:37;98330.74;;;2.28;83.80
75551;BME280;65071;53.082;18.218;2024-01-15T10:08:04;98321.61;;;2.22;84.15
75551;BME280;65071;53.082;18.218;2024-01-15T10:10:31;98328.05;;;2.20;83.91
75551;BME280;65071;53.082;18.218;2024-01-15T10:12:58;98327.08;;;2.19;84.50
75551;BME280;65071;53.082;18.218;2024-01-15T10:15:26;98334.09;;;2.18;84.77
75551;BME280;65071;53.082;18.218;2024-01-15T10:17:52;98336.29;;;2.18;84.00
75551;BME280;65071;53.082;18.218;2024-01-15T10:20:20;98341.67;;;2.19;83.79
75551;BME280;65071;53.082;18.218;2024-01-15T10:22:48;98336.59;;;2.21;83.28
75551;BME280;65071;53.082;18.218;2024-01-15T10:25:16;98351.79;;;2.27;83.30
75551;BME280;65071;53.082;18.218;2024-01-15T10:27:59;98353.14;;;2.40;82.49
75551;BME280;65071;53.082;18.218;2024-01-15T10:30:26;98349.38;;;2.48;81.93
75551;BME280;65071;53.082;18.218;2024-01-15T10:33:04;98346.70;;;2.52;81.50
75551;BME280;65071;53.082;18.218;2024-01-15T10:35:34;98343.59;;;2.57;80.77
75551;BME280;65071;53.082;18.218;2024-01-15T10:38:01;98336.92;;;2.65;81.06
75551;BME280;65071;53.082;18.218;2024-01-15T10:40:28;98342.89;;;2.66;80.02
75551;BME280;65071;53.082;18.218;2024-01-15T10:42:55;98344.80;;;2.63;80.29
75551;BME280;65071;53.082;18.218;2024-01-15T10:45:22;98343.81;;;2.64;80.79
75551;BME280;65071;53.082;18.218;2024-01-15T10:47:48;98342.98;;;2.68;81.73
75551;BME280;65071;53.082;18.218;2024-01-15T10:50:15;98337.40;;;2.69;81.39
75551;BME280;65071;53.082;18.218;2024-01-15T10:52:42;98341.38;;;2.78;80.77
75551;BME280;65071;53.082;18.218;2024-01-15T10:55:09;98338.52;;;2.89;79.95
75551;BME280;65071;53.082;18.218;2024-01-15T10:57:39;98335.70;;;3.01;80.03
75551;BME280;65071;53.082;18.218;2024-01-15T11:00:06;98330.87;;;3.11;79.30
75551;BME280;65071;53.082;18.218;2024-01-15T11:02:35;98327.12;;;3.15;78.45
75551;BME280;65071;53.082;18.218;2024-01-15T11:05:02;98318.06;;;3.08;78.05
75551;BME280;65071;53.082;18.218;2024-01-15T11:07:32;98314.35;;;2.93;77.65
75551;BME280;65071;53.082;18.218;2024-01-15T11:09:58;98322.11;;;2.92;78.00
75551;BME280;65071;53.082;18.218;2024-01-15T11:12:25;98317.84;;;2.89;78.52
75551;BME280;65071;53.082;18.218;2024-01-15T11:23:58;98308.73;;;2.93;79.68
75551;BME280;65071;53.082;18.218;2024-01-15T11:29:06;98300.62;;;3.09;78.72
75551;BME280;65071;53.082;18.218;2024-01-15T11:34:06;98283.82;;;3.33;76.01
75551;BME280;65071;53.082;18.218;2024-01-15T11:41:57;98290.04;;;3.53;74.89
75551;BME280;65071;53.082;18.218;2024-01-15T11:44:24;98274.68;;;3.47;73.43
75551;BME280;65071;53.082;18.218;2024-01-15T11:47:02;98282.27;;;3.42;72.38
75551;BME280;65071;53.082;18.218;2024-01-15T11:49:57;98300.93;;;3.51;72.31
75551;BME280;65071;53.082;18.218;2024-01-15T11:52:25;98302.81;;;3.59;72.21
75551;BME280;65071;53.082;18.218;2024-01-15T11:57:46;98301.56;;;3.72;73.42
75551;BME280;65071;53.082;18.218;2024-01-15T12:00:14;98302.50;;;3.70;72.21
75551;BME280;65071;53.082;18.218;2024-01-15T12:02:42;98301.34;;;3.59;71.45
75551;BME280;65071;53.082;18.218;2024-01-15T12:05:12;98302.52;;;3.52;71.68
75551;BME280;65071;53.082;18.218;2024-01-15T12:07:44;98302.63;;;3.50;71.85
75551;BME280;65071;53.082;18.218;2024-01-15T12:10:15;98305.17;;;3.46;71.72
75551;BME280;65071;53.082;18.218;2024-01-15T12:12:54;98317.46;;;3.41;71.66
75551;BME280;65071;53.082;18.218;2024-01-15T12:15:24;98312.38;;;3.39;71.48
75551;BME280;65071;53.082;18.218;2024-01-15T12:17:51;98318.07;;;3.39;72.30
75551;BME280;65071;53.082;18.218;2024-01-15T12:20:18;98311.20;;;3.46;72.57
75551;BME280;65071;53.082;18.218;2024-01-15T12:22:45;98313.69;;;3.46;73.47
75551;BME280;65071;53.082;18.218;2024-01-15T12:25:11;98318.96;;;3.40;74.36
75551;BME280;65071;53.082;18.218;2024-01-15T12:27:38;98319.86;;;3.35;73.75
75551;BME280;65071;53.082;18.218;2024-01-15T12:30:05;98320.42;;;3.35;74.24
75551;BME280;65071;53.082;18.218;2024-01-15T12:32:31;98321.49;;;3.38;73.73
75551;BME280;65071;53.082;18.218;2024-01-15T12:34:58;98328.52;;;3.42;74.09
75551;BME280;65071;53.082;18.218;2024-01-15T12:37:25;98328.52;;;3.48;74.93
75551;BME280;65071;53.082;18.218;2024-01-15T12:39:52;98329.15;;;3.51;73.25
75551;BME280;65071;53.082;18.218;2024-01-15T12:42:21;98337.44;;;3.56;73.39
75551;BME280;65071;53.082;18.218;2024-01-15T12:44:47;98325.30;;;3.61;72.86
75551;BME280;65071;53.082;18.218;2024-01-15T12:47:13;98312.98;;;3.59;72.35
75551;BME280;65071;53.082;18.218;2024-01-15T12:49:46;98327.96;;;3.61;72.30
75551;BME280;65071;53.082;18.218;2024-01-15T12:52:13;98329.84;;;3.62;72.71
75551;BME280;65071;53.082;18.218;2024-01-15T12:54:39;98329.21;;;3.58;71.35
75551;BME280;65071;53.082;18.218;2024-01-15T12:57:06;98332.21;;;3.60;70.40
75551;BME280;65071;53.082;18.218;2024-01-15T12:59:32;98328.05;;;3.58;70.02
75551;BME280;65071;53.082;18.218;2024-01-15T13:01:59;98333.15;;;3.58;70.33
75551;BME280;65071;53.082;18.218;2024-01-15T13:04:26;98337.54;;;3.55;69.96
75551;BME280;65071;53.082;18.218;2024-01-15T13:06:52;98336.71;;;3.51;70.36
75551;BME280;65071;53.082;18.218;2024-01-15T13:09:19;98341.18;;;3.48;70.69
75551;BME280;65071;53.082;18.218;2024-01-15T13:11:46;98342.58;;;3.40;70.54
75551;BME280;65071;53.082;18.218;2024-01-15T13:14:12;98340.48;;;3.30;69.98
75551;BME280;65071;53.082;18.218;2024-01-15T13:16:42;98346.16;;;3.24;70.31
75551;BME280;65071;53.082;18.218;2024-01-15T13:19:09;98347.63;;;3.19;70.31
75551;BME280;65071;53.082;18.218;2024-01-15T13:21:37;98353.56;;;3.13;70.15
75551;BME280;65071;53.082;18.218;2024-01-15T13:24:04;98342.16;;;3.02;67.97
75551;BME280;65071;53.082;18.218;2024-01-15T13:26:32;98340.77;;;2.94;67.43
75551;BME280;65071;53.082;18.218;2024-01-15T13:29:02;98341.46;;;2.87;67.54